Time;durP1;ratioP1;P1;durP2;ratioP2;P2;SDS_P1;SDS_P2;PMS_P1;PMS_P2;Temp;Humidity;BMP_temperature;BMP_pressure;BME280_temperature;BME280_humidity;BME280_pressure;Samples;Min_cycle;Max_cycle;Signal;HPM_P1;HPM_P2
2022/06/04 00:00:03;;;;;;;;;;;;;;;23.63;60.47;99841.13;4486301;32;19988;-84
2022/06/04 00:02:29;;;;;;;;;;;;;;;23.69;60.48;99833.50;4486439;32;20056;-84
2022/06/04 00:04:54;;;;;;;;;;;;;;;23.40;60.45;99825.28;4486355;32;20638;-84
2022/06/04 00:07:19;;;;;;;;;;;;;;;23.58;60.47;99820.28;4471746;32;19999;-84
2022/06/04 00:15:29;;;;;;;;;;;;;;;23.52;60.47;99813.62;4488684;32;20020;-85
2022/06/04 00:15:29;;;;;;;;;;;;;;;23.53;60.46;99804.69;4473673;32;19995;-85
2022/06/04 00:17:54;;;;;;;;;;;;;;;23.62;60.47;99796.94;4471422;32;20036;-87
2022/06/04 00:20:20;;;;;;;;;;;;;;;23.68;60.48;99789.28;4471618;32;20594;-84
2022/06/04 00:22:46;;;;;;;;;;;;;;;23.71;60.47;99782.88;4471582;32;20041;-84
2022/06/04 00:25:12;;;;;;;;;;;;;;;23.53;60.46;99779.94;4471608;32;20003;-84
2022/06/04 00:27:38;;;;;;;;;;;;;;;23.57;60.46;99786.69;4486108;32;20022;-85
2022/06/04 00:30:05;;;;;;;;;;;;;;;23.42;60.46;99783.50;4485697;32;20237;-83
2022/06/04 00:32:30;;;;;;;;;;;;;;;23.26;60.44;99793.75;4486247;32;19972;-84
2022/06/04 00:34:55;;;;;;;;;;;;;;;23.31;60.45;99785.38;4485413;32;23875;-84
2022/06/04 00:37:20;;;;;;;;;;;;;;;23.18;60.44;99798.81;4485937;32;19992;-83
2022/06/04 00:39:46;;;;;;;;;;;;;;;23.08;60.43;99789.97;4471009;32;20302;-84
2022/06/04 00:42:12;;;;;;;;;;;;;;;23.05;60.44;99791.06;4485837;32;20020;-84
2022/06/04 00:44:53;;;;;;;;;;;;;;;23.13;60.45;99787.75;4485876;32;19981;-82
2022/06/04 00:47:25;;;;;;;;;;;;;;;23.05;60.44;99784.91;4485988;32;19988;-83
2022/06/04 00:49:51;;;;;;;;;;;;;;;23.23;60.45;99786.88;4486075;32;19985;-83
2022/06/04 00:52:17;;;;;;;;;;;;;;;23.02;60.43;99777.19;4485685;32;19980;-85
2022/06/04 00:54:42;;;;;;;;;;;;;;;23.06;60.44;99778.63;4485728;32;20355;-83
2022/06/04 00:57:07;;;;;;;;;;;;;;;;;;4471135;32;19996;-82
2022/06/04 00:59:35;;;;;;;;;;;;;;;23.41;60.45;99765.88;4486015;32;19999;-84
2022/06/04 01:02:00;;;;;;;;;;;;;;;23.43;60.46;99755.97;4471416;32;20040;-84
2022/06/04 01:04:48;;;;;;;;;;;;;;;23.43;60.46;99753.31;4485987;32;19964;-83
2022/06/04 01:07:23;;;;;;;;;;;;;;;23.11;60.45;99752.53;4472368;32;20313;-85
2022/06/04 01:09:58;;;;;;;;;;;;;;;23.20;60.45;99742.00;4486016;32;20004;-84
2022/06/04 01:12:29;;;;;;;;;;;;;;;23.20;60.44;99731.38;4471615;32;19968;-84
2022/06/04 01:15:10;;;;;;;;;;;;;;;23.16;60.44;99726.41;4485782;32;19972;-85
2022/06/04 01:17:53;;;;;;;;;;;;;;;22.95;60.43;99718.47;4485956;32;19988;-84
2022/06/04 01:20:24;;;;;;;;;;;;;;;22.87;60.42;99713.78;4485723;32;19992;-86
2022/06/04 01:22:58;;;;;;;;;;;;;;;23.03;60.44;99705.38;4471251;32;20032;-84
2022/06/04 01:25:45;;;;;;;;;;;;;;;23.05;60.44;99698.13;4485695;32;19984;-85
2022/06/04 01:28:11;;;;;;;;;;;;;;;22.86;60.42;99706.78;4471606;32;19980;-85
2022/06/04 01:30:41;;;;;;;;;;;;;;;22.70;60.41;99693.06;4471403;32;19988;-84
2022/06/04 01:33:09;;;;;;;;;;;;;;;22.92;60.43;99711.59;4471432;32;19980;-85
2022/06/04 01:35:37;;;;;;;;;;;;;;;23.02;60.43;99714.31;4485180;32;20015;-85
2022/06/04 01:38:02;;;;;;;;;;;;;;;22.89;60.43;99722.47;4458047;32;19997;-84
2022/06/04 01:43:13;;;;;;;;;;;;;;;22.96;60.44;99728.97;4485664;32;20399;-85
2022/06/04 01:45:39;;;;;;;;;;;;;;;23.00;60.43;99734.00;4471060;32;20000;-85
2022/06/04 01:48:05;;;;;;;;;;;;;;;22.94;60.42;99735.34;4471249;32;19981;-84
2022/06/04 01:50:32;;;;;;;;;;;;;;;22.93;60.43;99747.78;4485327;32;20011;-85
2022/06/04 01:52:58;;;;;;;;;;;;;;;22.90;60.43;99749.84;4485688;32;20315;-85
2022/06/04 01:55:29;;;;;;;;;;;;;;;22.96;60.43;99744.88;4470808;32;19988;-84
2022/06/04 01:57:56;;;;;;;;;;;;;;;23.11;60.43;99747.22;4458131;32;19992;-84
2022/06/04 02:00:23;;;;;;;;;;;;;;;23.09;60.43;99743.84;4459809;32;19987;-85
2022/06/04 02:02:58;;;;;;;;;;;;;;;23.26;60.44;99733.50;4474953;32;19977;-84
2022/06/04 02:05:40;;;;;;;;;;;;;;;23.35;60.45;99731.84;4485992;32;20378;-85
2022/06/04 02:08:06;;;;;;;;;;;;;;;23.05;60.44;99726.50;4471157;32;20368;-84
2022/06/04 02:10:32;;;;;;;;;;;;;;;22.98;60.43;99718.22;4457254;32;19999;-85
2022/06/04 02:12:59;;;;;;;;;;;;;;;23.07;60.43;99712.13;4471194;32;20023;-84
2022/06/04 02:15:45;;;;;;;;;;;;;;;23.03;60.43;99709.84;4470989;32;19989;-84
2022/06/04 02:18:10;;;;;;;;;;;;;;;23.11;60.43;99715.34;4485146;32;20305;-84
2022/06/04 02:20:35;;;;;;;;;;;;;;;23.06;60.43;99705.13;4485744;32;19991;-84
2022/06/04 02:23:01;;;;;;;;;;;;;;;23.10;60.43;99698.59;4485787;32;19973;-84
2022/06/04 02:25:27;;;;;;;;;;;;;;;23.06;60.44;99697.16;4471419;32;20005;-85
2022/06/04 02:27:52;;;;;;;;;;;;;;;23.15;60.43;99712.31;4471759;32;20154;-85
2022/06/04 02:30:18;;;;;;;;;;;;;;;23.02;60.42;99714.31;4485916;32;20330;-86
2022/06/04 02:32:43;;;;;;;;;;;;;;;22.91;60.43;99712.56;4471509;32;20277;-86
2022/06/04 02:35:14;;;;;;;;;;;;;;;22.86;60.42;99714.75;4470982;32;20004;-86
2022/06/04 02:37:40;;;;;;;;;;;;;;;22.84;60.42;99706.09;4471192;32;20034;-87
2022/06/04 02:40:06;;;;;;;;;;;;;;;22.72;60.41;99711.56;4485360;31;20011;-86
2022/06/04 02:42:31;;;;;;;;;;;;;;;22.93;60.42;99715.06;4485300;32;20313;-86
2022/06/04 02:44:57;;;;;;;;;;;;;;;22.86;60.42;99714.75;4470524;32;20372;-86
2022/06/04 02:47:26;;;;;;;;;;;;;;;22.84;60.42;99708.75;4470734;32;20332;-85
2022/06/04 02:50:08;;;;;;;;;;;;;;;22.90;60.43;99718.84;4470991;32;20015;-85
2022/06/04 02:52:33;;;;;;;;;;;;;;;22.97;60.43;99713.88;4485336;32;19972;-85
2022/06/04 02:55:00;;;;;;;;;;;;;;;22.83;60.42;99712.37;4470147;32;20319;-86
2022/06/04 02:57:26;;;;;;;;;;;;;;;22.84;60.42;99711.37;4470946;32;19997;-87
2022/06/04 02:59:51;;;;;;;;;;;;;;;22.85;60.42;99696.31;4470789;32;20004;-85
2022/06/04 03:02:16;;;;;;;;;;;;;;;22.92;60.43;99690.34;4470618;32;20011;-85
2022/06/04 03:04:43;;;;;;;;;;;;;;;23.05;60.44;99681.37;4457590;32;20378;-85
2022/06/04 03:07:08;;;;;;;;;;;;;;;23.08;60.43;99681.09;4457919;32;20349;-86
2022/06/04 03:09:33;;;;;;;;;;;;;;;22.99;60.43;99688.03;4457840;32;20036;-84
2022/06/04 03:11:59;;;;;;;;;;;;;;;22.81;60.42;99687.75;4484474;32;25259;-84
2022/06/04 03:14:24;;;;;;;;;;;;;;;22.79;60.42;99700.28;4485159;32;20007;-84
2022/06/04 03:16:49;;;;;;;;;;;;;;;22.85;60.42;99705.13;4484489;32;19996;-86
2022/06/04 03:19:14;;;;;;;;;;;;;;;22.70;60.41;99700.19;4470677;32;20013;-85
2022/06/04 03:21:40;;;;;;;;;;;;;;;22.89;60.42;99698.56;4470195;32;20023;-83
2022/06/04 03:24:06;;;;;;;;;;;;;;;22.96;60.42;99698.91;4485114;32;19983;-84
2022/06/04 03:26:31;;;;;;;;;;;;;;;23.04;60.44;99699.09;4484869;32;20302;-84
2022/06/04 03:28:56;;;;;;;;;;;;;;;23.04;60.43;99704.41;4470554;32;20239;-84
2022/06/04 03:31:21;;;;;;;;;;;;;;;23.13;60.43;99705.44;4484765;32;20039;-84
2022/06/04 03:33:47;;;;;;;;;;;;;;;23.17;60.44;99697.09;4484931;32;20000;-84
2022/06/04 03:36:12;;;;;;;;;;;;;;;23.17;60.43;99693.59;4470089;32;20032;-84
2022/06/04 03:38:37;;;;;;;;;;;;;;;23.20;60.43;99699.50;4484774;32;20019;-85
2022/06/04 03:41:02;;;;;;;;;;;;;;;23.15;60.43;99698.19;4484491;32;19976;-85
2022/06/04 03:43:28;;;;;;;;;;;;;;;23.13;60.44;99684.19;4470457;32;20004;-85
2022/06/04 03:45:53;;;;;;;;;;;;;;;23.05;60.43;99682.22;4470201;32;19989;-85
2022/06/04 03:48:18;;;;;;;;;;;;;;;23.02;60.42;99685.12;4470332;32;19992;-84
2022/06/04 03:50:44;;;;;;;;;;;;;;;22.93;60.42;99686.72;4485551;32;20029;-85
2022/06/04 03:53:09;;;;;;;;;;;;;;;22.85;60.42;99685.69;4471685;32;19977;-84
2022/06/04 03:55:34;;;;;;;;;;;;;;;22.80;60.42;99690.53;4484851;32;20309;-85
2022/06/04 03:57:59;;;;;;;;;;;;;;;22.85;60.41;99693.66;4484836;32;19972;-84
2022/06/04 04:00:30;;;;;;;;;;;;;;;22.79;60.41;99700.28;4469873;32;20272;-83
2022/06/04 04:02:56;;;;;;;;;;;;;;;22.87;60.41;99684.59;4484527;32;20348;-85
2022/06/04 04:05:22;;;;;;;;;;;;;;;22.91;60.42;99690.47;4484281;32;20032;-84
2022/06/04 04:07:48;;;;;;;;;;;;;;;22.95;60.41;99687.47;4484376;32;19998;-84
2022/06/04 04:10:13;;;;;;;;;;;;;;;22.77;60.41;99696.09;4469861;32;20273;-84
2022/06/04 04:12:38;;;;;;;;;;;;;;;22.88;60.42;99696.87;4470157;32;19977;-85
2022/06/04 04:15:04;;;;;;;;;;;;;;;22.71;60.41;99693.91;4483801;32;19995;-84
2022/06/04 04:17:30;;;;;;;;;;;;;;;22.64;60.40;99696.25;4469960;32;20037;-84
2022/06/04 04:19:55;;;;;;;;;;;;;;;22.80;60.42;99699.31;4484197;32;20152;-85
2022/06/04 04:22:21;;;;;;;;;;;;;;;22.66;60.41;99700.44;4482823;32;19984;-85
2022/06/04 04:24:46;;;;;;;;;;;;;;;22.45;60.40;99704.88;4483997;32;20356;-85
2022/06/04 04:27:11;;;;;;;;;;;;;;;22.64;60.40;99728.09;4469884;32;20313;-87
2022/06/04 04:29:37;;;;;;;;;;;;;;;22.60;60.40;99731.97;4470006;32;19976;-86
2022/06/04 04:32:02;;;;;;;;;;;;;;;22.59;60.41;99760.31;4470089;32;20006;-86
2022/06/04 04:34:27;;;;;;;;;;;;;;;22.31;60.38;99801.47;4472129;32;20029;-87
2022/06/04 04:36:53;;;;;;;;;;;;;;;22.36;60.39;99791.34;4486178;32;19977;-87
2022/06/04 04:39:18;;;;;;;;;;;;;;;22.33;60.40;99765.06;4471814;32;20040;-88
2022/06/04 04:41:43;;;;;;;;;;;;;;;22.33;60.39;99749.16;4471562;32;22996;-87
2022/06/04 04:44:08;;;;;;;;;;;;;;;22.55;60.40;99755.38;4486518;32;20008;-87
2022/06/04 04:46:33;;;;;;;;;;;;;;;22.53;60.40;99752.00;4486000;32;20305;-87
2022/06/04 04:48:59;;;;;;;;;;;;;;;22.36;60.39;99756.87;4486309;32;20355;-87
2022/06/04 04:51:25;;;;;;;;;;;;;;;22.47;60.40;99761.28;4471894;32;19995;-87
2022/06/04 04:53:50;;;;;;;;;;;;;;;22.53;60.40;99757.31;4458847;32;20314;-87
2022/06/04 04:56:15;;;;;;;;;;;;;;;22.50;60.40;99752.28;4471523;32;20004;-87
2022/06/04 04:58:41;;;;;;;;;;;;;;;22.47;60.39;99747.19;4471785;32;19972;-87
2022/06/04 05:01:13;;;;;;;;;;;;;;;22.46;60.39;99740.19;4471580;32;20036;-85
2022/06/04 05:03:39;;;;;;;;;;;;;;;22.52;60.40;99745.88;4486616;32;19980;-86
2022/06/04 05:06:04;;;;;;;;;;;;;;;22.62;60.40;99745.94;4486557;32;20019;-86
2022/06/04 05:08:30;;;;;;;;;;;;;;;22.75;60.41;99743.13;4486306;32;20807;-85
2022/06/04 05:10:55;;;;;;;;;;;;;;;22.82;60.42;99736.38;4458852;32;19988;-85
2022/06/04 05:13:20;;;;;;;;;;;;;;;22.85;60.41;99723.69;4471544;32;21561;-85
2022/06/04 05:15:45;;;;;;;;;;;;;;;22.93;60.42;99723.03;4471531;32;20025;-85
2022/06/04 05:18:11;;;;;;;;;;;;;;;22.98;60.42;99726.19;4472351;32;20013;-85
2022/06/04 05:20:37;;;;;;;;;;;;;;;23.02;60.42;99730.25;4486704;32;19990;-85
2022/06/04 05:23:02;;;;;;;;;;;;;;;22.99;60.42;99742.94;4486203;32;20006;-87
2022/06/04 05:25:27;;;;;;;;;;;;;;;23.00;60.43;99749.94;4471733;32;20242;-87
2022/06/04 05:27:52;;;;;;;;;;;;;;;23.04;60.43;99757.50;4486249;32;19972;-86
2022/06/04 05:30:18;;;;;;;;;;;;;;;23.06;60.43;99744.94;4485901;32;20379;-87
2022/06/04 05:32:43;;;;;;;;;;;;;;;23.08;60.42;99742.16;4471931;32;19984;-87
2022/06/04 05:35:08;;;;;;;;;;;;;;;23.13;60.44;99739.97;4485932;32;19980;-87
2022/06/04 05:37:33;;;;;;;;;;;;;;;23.20;60.42;99735.84;4486166;32;19993;-86
2022/06/04 05:39:59;;;;;;;;;;;;;;;23.17;60.43;99736.06;4486235;32;20229;-87
2022/06/04 05:42:24;;;;;;;;;;;;;;;23.15;60.43;99730.88;4473008;32;20000;-88
2022/06/04 05:44:52;;;;;;;;;;;;;;;23.12;60.44;99735.63;4485287;32;19996;-89
2022/06/04 05:47:17;;;;;;;;;;;;;;;23.20;60.43;99731.38;4486944;32;19973;-87
2022/06/04 05:49:42;;;;;;;;;;;;;;;23.18;60.43;99735.94;4486404;32;20250;-86
2022/06/04 05:52:08;;;;;;;;;;;;;;;23.05;60.43;99735.31;4471660;32;20012;-85
2022/06/04 05:54:33;;;;;;;;;;;;;;;22.98;60.43;99741.25;4485757;32;19989;-87
2022/06/04 05:56:58;;;;;;;;;;;;;;;22.86;60.41;99745.75;4471598;32;19968;-88
2022/06/04 05:59:24;;;;;;;;;;;;;;;22.92;60.42;99735.47;4470842;32;20002;-86
2022/06/04 06:01:49;;;;;;;;;;;;;;;22.95;60.41;99731.75;4485696;32;19992;-84
2022/06/04 06:04:15;;;;;;;;;;;;;;;23.00;60.42;99736.66;4485871;32;19984;-87
2022/06/04 06:06:41;;;;;;;;;;;;;;;23.02;60.42;99735.56;4471443;32;20313;-87
2022/06/04 06:09:09;;;;;;;;;;;;;;;22.99;60.42;99730.53;4485729;32;19972;-86
2022/06/04 06:11:34;;;;;;;;;;;;;;;22.90;60.42;99724.16;4471516;32;20366;-90
2022/06/04 06:13:59;;;;;;;;;;;;;;;22.87;60.41;99727.06;4471125;32;19985;-88
2022/06/04 06:16:26;;;;;;;;;;;;;;;22.86;60.41;99728.03;4458348;32;20313;-87
2022/06/04 06:18:52;;;;;;;;;;;;;;;22.85;60.41;99738.78;4485657;32;19976;-87
2022/06/04 06:24:23;;;;;;;;;;;;;;;22.84;60.41;99737.94;4485706;32;19994;-87
2022/06/04 06:26:49;;;;;;;;;;;;;;;22.70;60.40;99738.19;4485577;32;19976;-87
2022/06/04 06:29:15;;;;;;;;;;;;;;;22.81;60.41;99738.19;4471363;32;19981;-88
2022/06/04 06:31:41;;;;;;;;;;;;;;;22.83;60.41;99738.06;4471320;32;19996;-85
2022/06/04 06:34:06;;;;;;;;;;;;;;;22.76;60.41;99724.44;4485595;32;19988;-85
2022/06/04 06:36:31;;;;;;;;;;;;;;;22.76;60.41;99720.94;4485614;32;19988;-85
2022/06/04 06:38:57;;;;;;;;;;;;;;;22.82;60.42;99733.72;4484907;32;25969;-85
2022/06/04 06:41:23;;;;;;;;;;;;;;;22.68;60.40;99733.00;4471271;32;20365;-85
2022/06/04 06:43:50;;;;;;;;;;;;;;;22.71;60.40;99736.38;4471542;32;20015;-85
2022/06/04 06:46:19;;;;;;;;;;;;;;;22.84;60.41;99731.78;4471414;32;19995;-85
2022/06/04 06:48:45;;;;;;;;;;;;;;;22.66;60.41;99732.28;4485447;32;20356;-85
2022/06/04 06:51:28;;;;;;;;;;;;;;;22.78;60.41;99726.97;4470958;32;19988;-85
2022/06/04 06:53:56;;;;;;;;;;;;;;;22.70;60.41;99726.72;4458033;32;20702;-85
2022/06/04 06:56:23;;;;;;;;;;;;;;;22.72;60.40;99725.66;4470475;32;20351;-85
2022/06/04 06:58:48;;;;;;;;;;;;;;;22.64;60.40;99717.47;4485611;32;19992;-85
2022/06/04 07:01:14;;;;;;;;;;;;;;;22.51;60.40;99727.44;4485099;32;24114;-84
2022/06/04 07:03:39;;;;;;;;;;;;;;;22.73;60.40;99723.84;4485559;32;19991;-85
2022/06/04 07:06:04;;;;;;;;;;;;;;;22.72;60.40;99717.72;4471019;32;20376;-85
2022/06/04 07:08:30;;;;;;;;;;;;;;;22.75;60.41;99720.09;4485542;32;20297;-85
2022/06/04 07:10:55;;;;;;;;;;;;;;;22.81;60.42;99716.09;4485022;32;19988;-85
2022/06/04 07:13:20;;;;;;;;;;;;;;;22.88;60.41;99717.28;4471085;32;19996;-85
2022/06/04 07:15:45;;;;;;;;;;;;;;;23.02;60.42;99709.03;4485371;32;19987;-85
2022/06/04 07:18:11;;;;;;;;;;;;;;;23.07;60.43;99706.81;4470455;32;20016;-84
2022/06/04 07:20:37;;;;;;;;;;;;;;;23.21;60.44;99706.50;4470836;32;20019;-85
2022/06/04 07:23:02;;;;;;;;;;;;;;;23.20;60.43;99718.09;4485447;32;19992;-85
2022/06/04 07:25:27;;;;;;;;;;;;;;;23.28;60.44;99715.62;4485400;32;19972;-85
2022/06/04 07:27:52;;;;;;;;;;;;;;;23.48;60.45;99702.44;4485110;32;20057;-83
2022/06/04 07:30:18;;;;;;;;;;;;;;;23.48;60.44;99699.78;4485179;32;19989;-85
2022/06/04 07:32:43;;;;;;;;;;;;;;;23.63;60.46;99703.78;4471120;32;19984;-85
2022/06/04 07:35:09;;;;;;;;;;;;;;;23.70;60.46;99704.13;4476853;32;20000;-85
2022/06/04 07:37:34;;;;;;;;;;;;;;;23.71;60.45;99703.13;4472770;32;20244;-84
2022/06/04 07:39:59;;;;;;;;;;;;;;;23.85;60.47;99710.72;4470652;32;20015;-85
2022/06/04 07:42:26;;;;;;;;;;;;;;;24.00;60.48;99708.56;4485092;32;20296;-84
2022/06/04 07:44:51;;;;;;;;;;;;;;;24.05;60.47;99709.81;4470854;32;19991;-85
2022/06/04 07:47:16;;;;;;;;;;;;;;;24.15;60.48;99710.69;4470680;32;19999;-85
2022/06/04 07:49:41;;;;;;;;;;;;;;;24.29;60.49;99709.47;4469292;32;20258;-84
2022/06/04 07:52:07;;;;;;;;;;;;;;;24.46;60.50;99710.63;4484181;32;24785;-85
2022/06/04 07:54:34;;;;;;;;;;;;;;;24.61;60.51;99706.59;4469944;32;20343;-85
2022/06/04 07:56:59;;;;;;;;;;;;;;;24.57;60.50;99705.16;4484724;32;20023;-84
2022/06/04 07:59:26;;;;;;;;;;;;;;;24.62;60.50;99704.78;4456946;32;20046;-84
2022/06/04 08:01:51;;;;;;;;;;;;;;;24.82;60.51;99706.44;4484668;32;19996;-83
2022/06/04 08:04:16;;;;;;;;;;;;;;;24.86;60.51;99697.22;4484818;32;19977;-85
2022/06/04 08:06:41;;;;;;;;;;;;;;;24.89;60.52;99691.59;4484271;32;21570;-85
2022/06/04 08:09:07;;;;;;;;;;;;;;;24.97;60.52;99688.22;4472249;32;19994;-85
2022/06/04 08:11:32;;;;;;;;;;;;;;;25.16;60.54;99692.72;4486776;32;20016;-84
2022/06/04 08:14:08;;;;;;;;;;;;;;;25.32;60.54;99701.78;4486846;32;19972;-85
2022/06/04 08:16:34;;;;;;;;;;;;;;;25.39;60.54;99694.88;4472381;32;20048;-85
2022/06/04 08:19:00;;;;;;;;;;;;;;;25.39;60.53;99688.72;4486696;32;19977;-85
2022/06/04 08:21:25;;;;;;;;;;;;;;;25.69;60.55;99679.66;4486515;32;19991;-85
2022/06/04 08:23:50;;;;;;;;;;;;;;;25.73;60.56;99681.03;4472207;32;20323;-85
2022/06/04 08:26:15;;;;;;;;;;;;;;;25.72;60.56;99679.34;4479303;32;19995;-86
2022/06/04 08:28:40;;;;;;;;;;;;;;;26.00;60.57;99681.03;4487624;32;19999;-85
2022/06/04 08:31:07;;;;;;;;;;;;;;;26.06;60.57;99673.44;4472239;32;20425;-85
2022/06/04 08:33:32;;;;;;;;;;;;;;;26.11;60.58;99681.81;4486711;32;20021;-85
2022/06/04 08:35:57;;;;;;;;;;;;;;;26.17;60.58;99683.88;4486603;32;20337;-85
2022/06/04 08:38:23;;;;;;;;;;;;;;;26.02;60.57;99688.87;4486472;32;20016;-84
2022/06/04 08:40:52;;;;;;;;;;;;;;;26.15;60.58;99686.69;4472011;32;20346;-84
2022/06/04 08:43:31;;;;;;;;;;;;;;;26.26;60.58;99677.62;4472313;32;20273;-85
2022/06/04 08:45:57;;;;;;;;;;;;;;;26.06;60.57;99686.78;4471504;32;20115;-84
2022/06/04 08:48:27;;;;;;;;;;;;;;;26.10;60.58;99683.66;4486326;32;20004;-85
2022/06/04 08:50:54;;;;;;;;;;;;;;;26.20;60.58;99697.75;4472453;32;20007;-85
2022/06/04 08:53:20;;;;;;;;;;;;;;;26.20;60.58;99692.41;4472010;32;19991;-85
2022/06/04 08:58:41;;;;;;;;;;;;;;;26.17;60.58;99694.56;4486208;32;20490;-84
2022/06/04 09:01:29;;;;;;;;;;;;;;;26.20;60.59;99694.25;4486370;32;20333;-85
2022/06/04 09:04:01;;;;;;;;;;;;;;;26.13;60.58;99701.19;4479436;32;20064;-84
2022/06/04 09:06:26;;;;;;;;;;;;;;;26.23;60.58;99694.78;4471698;32;19973;-84
2022/06/04 09:09:10;;;;;;;;;;;;;;;26.35;60.59;99695.47;4471641;32;19997;-85
2022/06/04 09:11:44;;;;;;;;;;;;;;;26.46;60.59;99695.22;4486283;32;19996;-84
2022/06/04 09:14:28;;;;;;;;;;;;;;;26.51;60.60;99697.47;4484981;32;20348;-85
2022/06/04 09:16:59;;;;;;;;;;;;;;;26.45;60.60;99706.06;4486278;32;19988;-85
2022/06/04 09:19:25;;;;;;;;;;;;;;;26.35;60.59;99700.78;4485564;32;20264;-85
2022/06/04 09:21:50;;;;;;;;;;;;;;;26.47;60.59;99702.22;4471843;32;19992;-85
2022/06/04 09:24:15;;;;;;;;;;;;;;;26.40;60.59;99701.16;4471739;32;20374;-85
2022/06/04 09:26:42;;;;;;;;;;;;;;;26.34;60.59;99696.44;4486183;32;19977;-85
2022/06/04 09:29:25;;;;;;;;;;;;;;;26.20;60.59;99694.25;4458702;32;20019;-84
2022/06/04 09:31:55;;;;;;;;;;;;;;;26.38;60.59;99687.13;4458619;32;19996;-84
2022/06/04 09:34:24;;;;;;;;;;;;;;;26.36;60.59;99685.62;4472000;32;20040;-84
2022/06/04 09:36:49;;;;;;;;;;;;;;;26.54;60.60;99686.47;4486160;32;19991;-84
2022/06/04 09:39:22;;;;;;;;;;;;;;;26.28;60.59;99686.34;4471468;32;20047;-84
2022/06/04 09:42:01;;;;;;;;;;;;;;;26.47;60.59;99685.38;4471711;32;20333;-84
2022/06/04 09:44:27;;;;;;;;;;;;;;;26.50;60.61;99685.94;4471639;32;19977;-85
2022/06/04 09:47:06;;;;;;;;;;;;;;;26.54;60.60;99686.47;4486151;32;19977;-85
2022/06/04 09:49:42;;;;;;;;;;;;;;;26.59;60.60;99684.19;4471529;32;19985;-85
2022/06/04 09:52:19;;;;;;;;;;;;;;;26.76;60.62;99686.00;4486022;32;20614;-85
2022/06/04 09:54:50;;;;;;;;;;;;;;;26.78;60.61;99676.00;4471632;32;19976;-85
2022/06/04 09:57:28;;;;;;;;;;;;;;;26.99;60.63;99683.72;4471820;32;19981;-85
2022/06/04 09:59:54;;;;;;;;;;;;;;;27.13;60.63;99680.47;4486080;32;19977;-85
2022/06/04 10:02:20;;;;;;;;;;;;;;;27.47;60.65;99685.88;4471941;32;20359;-84
2022/06/04 10:04:47;;;;;;;;;;;;;;;27.59;60.65;99686.41;4486018;32;19987;-85
2022/06/04 10:07:14;;;;;;;;;;;;;;;27.48;60.65;99686.69;4471839;32;20305;-84
2022/06/04 10:10:16;;;;;;;;;;;;;;;27.52;60.66;99683.53;4471562;32;20340;-84
2022/06/04 10:15:38;;;;;;;;;;;;;;;27.46;60.65;99689.53;4473909;32;20414;-84
2022/06/04 10:18:18;;;;;;;;;;;;;;;27.72;60.66;99689.53;4485899;32;19984;-84
2022/06/04 10:20:57;;;;;;;;;;;;;;;27.87;60.67;99689.75;4471934;32;20325;-84
2022/06/04 10:23:22;;;;;;;;;;;;;;;27.89;60.67;99689.56;4471814;32;20040;-83
2022/06/04 10:25:47;;;;;;;;;;;;;;;27.80;60.67;99696.75;4471829;32;19983;-83
2022/06/04 10:28:29;;;;;;;;;;;;;;;27.62;60.66;99699.50;4486063;32;20034;-83
2022/06/04 10:31:13;;;;;;;;;;;;;;;27.57;60.65;99700.94;4470205;32;20018;-83
2022/06/04 10:33:53;;;;;;;;;;;;;;;27.62;60.66;99699.50;4486165;32;19988;-83
2022/06/04 10:36:21;;;;;;;;;;;;;;;27.49;60.65;99697.25;4471681;32;19987;-83
2022/06/04 10:38:46;;;;;;;;;;;;;;;27.78;60.67;99698.75;4485690;32;19973;-83
2022/06/04 10:41:13;;;;;;;;;;;;;;;27.88;60.67;99703.94;4485817;32;19980;-83
2022/06/04 10:43:44;;;;;;;;;;;;;;;27.90;60.67;99701.94;4485805;32;20377;-83
2022/06/04 10:46:24;;;;;;;;;;;;;;;27.55;60.65;99698.44;4485828;32;19999;-83
2022/06/04 10:48:59;;;;;;;;;;;;;;;27.62;60.66;99707.50;4485707;32;19984;-83
2022/06/04 10:51:27;;;;;;;;;;;;;;;27.92;60.68;99702.63;4471412;32;20003;-83
2022/06/04 10:54:02;;;;;;;;;;;;;;;28.13;60.68;99698.53;4485615;32;19989;-83
2022/06/04 10:56:35;;;;;;;;;;;;;;;27.78;60.67;99706.78;4458238;32;19973;-83
2022/06/04 10:59:03;;;;;;;;;;;;;;;27.86;60.68;99706.78;4458282;32;20036;-83
2022/06/04 11:01:34;;;;;;;;;;;;;;;27.82;60.67;99711.63;4485648;32;20347;-83
2022/06/04 11:04:04;;;;;;;;;;;;;;;27.99;60.69;99717.06;4471528;32;19992;-83
2022/06/04 11:06:31;;;;;;;;;;;;;;;27.96;60.68;99715.53;4485848;32;19976;-83
2022/06/04 11:08:58;;;;;;;;;;;;;;;28.19;60.69;99713.13;4471412;32;19977;-82
2022/06/04 11:11:42;;;;;;;;;;;;;;;28.41;60.70;99714.38;4471328;32;20052;-83
2022/06/04 11:14:09;;;;;;;;;;;;;;;28.37;60.71;99713.84;4471406;32;20033;-82
2022/06/04 11:16:37;;;;;;;;;;;;;;;28.27;60.69;99710.47;4471306;32;19991;-83
2022/06/04 11:19:16;;;;;;;;;;;;;;;28.19;60.69;99721.16;4458216;32;19980;-82
2022/06/04 11:21:42;;;;;;;;;;;;;;;28.13;60.70;99714.59;4471564;32;20533;-82
2022/06/04 11:24:11;;;;;;;;;;;;;;;28.47;60.71;99726.25;4485265;32;19976;-82
2022/06/04 11:26:44;;;;;;;;;;;;;;;28.37;60.70;99742.47;4485079;32;19989;-82
2022/06/04 11:29:11;;;;;;;;;;;;;;;28.03;60.69;99735.31;4470664;32;19991;-81
2022/06/04 11:31:50;;;;;;;;;;;;;;;28.10;60.69;99741.66;4470921;32;19992;-82
2022/06/04 11:34:35;;;;;;;;;;;;;;;28.37;60.71;99727.22;4470708;32;19996;-83
2022/06/04 11:37:16;;;;;;;;;;;;;;;28.71;60.72;99726.31;4454077;32;19980;-83
2022/06/04 11:39:47;;;;;;;;;;;;;;;28.59;60.71;99724.94;4484793;31;19991;-84
2022/06/04 11:42:21;;;;;;;;;;;;;;;28.36;60.70;99730.91;4484891;32;19976;-83
2022/06/04 11:44:54;;;;;;;;;;;;;;;28.32;60.70;99734.91;4485058;32;20037;-84
2022/06/04 11:47:19;;;;;;;;;;;;;;;28.37;60.70;99726.37;4470352;32;19969;-83
2022/06/04 11:49:44;;;;;;;;;;;;;;;28.39;60.71;99721.72;4484705;32;19999;-82
2022/06/04 11:52:10;;;;;;;;;;;;;;;28.51;60.71;99730.28;4484753;32;20537;-84
2022/06/04 11:54:35;;;;;;;;;;;;;;;28.61;60.71;99726.44;4484835;32;20012;-83
2022/06/04 11:57:07;;;;;;;;;;;;;;;28.49;60.71;99727.78;4485106;32;19993;-81
2022/06/04 11:59:47;;;;;;;;;;;;;;;28.48;60.71;99734.13;4470628;32;20069;-81
2022/06/04 12:02:33;;;;;;;;;;;;;;;28.66;60.72;99732.16;4470783;32;19992;-84
2022/06/04 12:05:01;;;;;;;;;;;;;;;28.52;60.71;99737.31;4460436;32;19980;-84
2022/06/04 12:07:29;;;;;;;;;;;;;;;28.32;60.70;99748.31;4485049;32;20048;-84
2022/06/04 12:10:18;;;;;;;;;;;;;;;28.33;60.70;99747.31;4484888;32;20347;-84
2022/06/04 12:12:48;;;;;;;;;;;;;;;28.17;60.70;99747.25;4462086;32;19998;-82
2022/06/04 12:15:21;;;;;;;;;;;;;;;28.30;60.71;99744.97;4484787;32;20433;-82
2022/06/04 12:17:47;;;;;;;;;;;;;;;28.61;60.71;99747.03;4470365;32;19972;-82
2022/06/04 12:25:44;;;;;;;;;;;;;;;28.61;60.71;99757.75;4484745;32;20030;-82
2022/06/04 12:28:29;;;;;;;;;;;;;;;28.71;60.72;99756.59;4470430;32;19987;-82
2022/06/04 12:30:54;;;;;;;;;;;;;;;28.71;60.72;99758.44;4470180;32;19995;-82
2022/06/04 12:33:24;;;;;;;;;;;;;;;28.52;60.71;99764.09;4470274;32;20350;-82
2022/06/04 12:35:57;;;;;;;;;;;;;;;28.45;60.70;99755.88;4470200;32;19992;-82
2022/06/04 12:38:24;;;;;;;;;;;;;;;28.38;60.71;99758.34;4457137;32;19980;-82
2022/06/04 12:40:50;;;;;;;;;;;;;;;28.33;60.70;99754.50;4470284;32;20025;-82
2022/06/04 12:43:18;;;;;;;;;;;;;;;28.31;60.70;99754.66;4470142;32;19984;-82
2022/06/04 12:45:47;;;;;;;;;;;;;;;28.50;60.72;99748.19;4484364;32;20041;-82
2022/06/04 12:48:18;;;;;;;;;;;;;;;28.54;60.72;99743.34;4470397;32;20013;-82
2022/06/04 12:50:45;;;;;;;;;;;;;;;28.38;60.71;99755.69;4456776;32;20037;-82
2022/06/04 12:53:16;;;;;;;;;;;;;;;28.31;60.71;99753.81;4470189;32;20048;-82
2022/06/04 12:55:45;;;;;;;;;;;;;;;28.20;60.69;99757.63;4472252;32;20630;-82
2022/06/04 12:58:20;;;;;;;;;;;;;;;28.22;60.69;99744.06;4472286;32;19977;-83
2022/06/04 13:00:53;;;;;;;;;;;;;;;28.29;60.71;99751.31;4486598;32;20332;-82
2022/06/04 13:03:27;;;;;;;;;;;;;;;28.48;60.72;99749.37;4472364;32;20030;-82
2022/06/04 13:06:03;;;;;;;;;;;;;;;28.69;60.72;99755.09;4486734;32;20018;-83
2022/06/04 13:08:32;;;;;;;;;;;;;;;28.79;60.73;99758.44;4472194;31;19995;-82
2022/06/04 13:10:57;;;;;;;;;;;;;;;28.90;60.73;99749.28;4493843;31;20019;-82
2022/06/04 13:13:41;;;;;;;;;;;;;;;29.02;60.74;99750.63;4493893;31;20344;-81